Livingstone, Zambia

2:40 PM CAT on September 22, 2014 (GMT +0200)
Livingstone | Change Station
CLOSE
Current Station
Airport
Location: Livingstone,
Elevation: 3235 ft
Nearby Weather Stations

Elev 3235 ft 17.82 °S, 25.82 °E | Updated 40 minutes ago

Clear
Clear
88 °F
Feels Like 88 °F
N
15
Wind Variable Wind from East

Today
High -- | Low -- °F
--% Chance of Precip.
Yesterday
High -- | Low -- °F
Precip. -- in
6:06 AM 6:12 PM
Waning Crescent, 3% visible
Pressure 30.12 in
Visibility -9999.0 miles
Clouds
Dew Point 50 °F
Humidity 27%
Rainfall 0.00 in
Snow Depth Not available.
UV Not available.
Pollen Not available.
Air Quality Not available.
Flu Activity Not available.
METAR FLLI 221200Z 10013KT CAVOK 31/10 Q1020 NOSIG

More Conditions Fewer Conditions

Pressure 30.12 in
Visibility -9999.0 miles
Clouds
Dew Point 50 °F
Humidity 27%
Rainfall 0.00 in
Snow Depth Not available.
UV Not available.
Pollen Not available.
Air Quality Not available.
Flu Activity Not available.
METAR FLLI 221200Z 10013KT CAVOK 31/10 Q1020 NOSIG

More Conditions Fewer Conditions

10-Day Weather Forecast

Almanac

Astronomy

Sep. 22, 2014 Rise Set
Actual Time 6:06 AM CAT 6:12 PM CAT
Civil Twilight 5:44 AM CAT 6:34 PM CAT
Nautical Twilight 5:19 AM CAT 6:59 PM CAT
Astronomical Twilight 4:54 AM CAT 7:24 PM CAT
Moon 4:44 AM CAT 4:51 PM CAT
Length of Visible Light 12h 49m
Length of Day
12h 06m
Tomorrow will be 1m 0s longer.
Waning Crescent, 3% of the Moon is Illuminated
Today
Waning Crescent
Sep 24
New
Oct 1
First Quarter
Oct 8
Full
Oct 15
Last Quarter

Yesterday's Extremes

Country Highs Country Lows

Community

WunderPhotos

Upload Photos

1,755,419 photos uploaded!

Nearby

Snow Depth

Not available.

Earthquake Activity

City Distance Mag. Time & Date
No recent earthquake activity has been reported nearby.
Minimum magnitude displayed is 2.5.

Coastal Water Temperatures

Place Temperature
No Stations Reporting

Nearby Weather Stations